sensor_id;sensor_type;location;lat;lon;timestamp;pressure;altitude;pressure_sealevel;temperature;humidity
6216;BME280;3141;49.234;9.326;2023-04-04T00:00:09;100619.13;;;4.39;52.40
6216;BME280;3141;49.234;9.326;2023-04-04T00:00:53;100619.22;;;4.38;52.69
6216;BME280;3141;49.234;9.326;2023-04-04T00:01:36;100620.03;;;4.38;52.64
6216;BME280;3141;49.234;9.326;2023-04-04T00:02:19;100624.34;;;4.39;52.45
6216;BME280;3141;49.234;9.326;2023-04-04T00:03:01;100621.94;;;4.36;52.58
6216;BME280;3141;49.234;9.326;2023-04-04T00:03:43;100620.13;;;4.37;53.01
6216;BME280;3141;49.234;9.326;2023-04-04T00:04:26;100621.38;;;4.31;52.34
6216;BME280;3141;49.234;9.326;2023-04-04T00:05:09;100615.47;;;4.28;52.92
6216;BME280;3141;49.234;9.326;2023-04-04T00:05:51;100619.75;;;4.29;53.17
6216;BME280;3141;49.234;9.326;2023-04-04T00:06:33;100621.72;;;4.25;52.80
6216;BME280;3141;49.234;9.326;2023-04-04T00:07:15;100616.59;;;4.24;52.89
6216;BME280;3141;49.234;9.326;2023-04-04T00:07:58;100610.03;;;4.17;52.68
6216;BME280;3141;49.234;9.326;2023-04-04T00:08:40;100615.28;;;4.17;52.85
6216;BME280;3141;49.234;9.326;2023-04-04T00:09:23;100613.66;;;4.14;53.37
6216;BME280;3141;49.234;9.326;2023-04-04T00:10:05;100615.94;;;4.20;53.34
6216;BME280;3141;49.234;9.326;2023-04-04T00:10:48;100609.94;;;4.18;52.63
6216;BME280;3141;49.234;9.326;2023-04-04T00:11:30;100614.31;;;4.18;52.73
6216;BME280;3141;49.234;9.326;2023-04-04T00:12:12;100611.00;;;4.16;53.01
6216;BME280;3141;49.234;9.326;2023-04-04T00:12:55;100611.16;;;4.27;52.71
6216;BME280;3141;49.234;9.326;2023-04-04T00:13:37;100611.81;;;4.30;52.48
6216;BME280;3141;49.234;9.326;2023-04-04T00:14:20;100611.47;;;4.36;51.79
6216;BME280;3141;49.234;9.326;2023-04-04T00:15:03;100610.50;;;4.37;52.12
6216;BME280;3141;49.234;9.326;2023-04-04T00:15:45;100604.72;;;4.32;51.49
6216;BME280;3141;49.234;9.326;2023-04-04T00:16:27;100612.38;;;4.35;51.98
6216;BME280;3141;49.234;9.326;2023-04-04T00:17:10;100604.16;;;4.27;52.17
6216;BME280;3141;49.234;9.326;2023-04-04T00:17:52;100606.38;;;4.33;51.66
6216;BME280;3141;49.234;9.326;2023-04-04T00:18:34;100599.47;;;4.32;51.76
6216;BME280;3141;49.234;9.326;2023-04-04T00:19:17;100609.19;;;4.30;52.08
6216;BME280;3141;49.234;9.326;2023-04-04T00:20:00;100600.78;;;4.25;51.71
6216;BME280;3141;49.234;9.326;2023-04-04T00:20:42;100600.34;;;4.33;50.81
6216;BME280;3141;49.234;9.326;2023-04-04T00:21:25;100604.81;;;4.31;51.51
6216;BME280;3141;49.234;9.326;2023-04-04T00:22:08;100604.63;;;4.34;51.62
6216;BME280;3141;49.234;9.326;2023-04-04T00:22:51;100596.66;;;4.35;51.29
6216;BME280;3141;49.234;9.326;2023-04-04T00:23:33;100602.19;;;4.31;51.26
6216;BME280;3141;49.234;9.326;2023-04-04T00:24:15;100601.81;;;4.37;51.32
6216;BME280;3141;49.234;9.326;2023-04-04T00:24:58;100601.34;;;4.30;51.08
6216;BME280;3141;49.234;9.326;2023-04-04T00:25:40;100603.78;;;4.33;51.15
6216;BME280;3141;49.234;9.326;2023-04-04T00:26:23;100600.34;;;4.33;51.20
6216;BME280;3141;49.234;9.326;2023-04-04T00:27:05;100603.97;;;4.30;50.97
6216;BME280;3141;49.234;9.326;2023-04-04T00:27:48;100603.22;;;4.28;51.37
6216;BME280;3141;49.234;9.326;2023-04-04T00:28:30;100596.66;;;4.35;51.53
6216;BME280;3141;49.234;9.326;2023-04-04T00:29:12;100599.28;;;4.35;51.42
6216;BME280;3141;49.234;9.326;2023-04-04T00:29:55;100600.22;;;4.34;50.90
6216;BME280;3141;49.234;9.326;2023-04-04T00:30:37;100603.06;;;4.31;51.05
6216;BME280;3141;49.234;9.326;2023-04-04T00:31:20;100601.16;;;4.33;51.25
6216;BME280;3141;49.234;9.326;2023-04-04T00:32:02;100602.00;;;4.34;51.27
6216;BME280;3141;49.234;9.326;2023-04-04T00:32:45;100601.16;;;4.33;51.30
6216;BME280;3141;49.234;9.326;2023-04-04T00:33:27;100587.81;;;4.38;51.52
6216;BME280;3141;49.234;9.326;2023-04-04T00:34:09;100604.63;;;4.34;51.64
6216;BME280;3141;49.234;9.326;2023-04-04T00:34:52;100600.59;;;4.28;51.39
6216;BME280;3141;49.234;9.326;2023-04-04T00:35:35;100597.97;;;4.14;51.63
6216;BME280;3141;49.234;9.326;2023-04-04T00:36:18;100595.75;;;4.22;51.48
6216;BME280;3141;49.234;9.326;2023-04-04T00:37:00;100596.41;;;4.26;52.23
6216;BME280;3141;49.234;9.326;2023-04-04T00:37:43;100602.31;;;4.29;52.23
6216;BME280;3141;49.234;9.326;2023-04-04T00:38:25;100592.19;;;4.23;51.31
6216;BME280;3141;49.234;9.326;2023-04-04T00:39:07;100597.81;;;4.17;51.63
6216;BME280;3141;49.234;9.326;2023-04-04T00:39:49;100588.16;;;4.18;51.57
6216;BME280;3141;49.234;9.326;2023-04-04T00:40:52;100590.06;;;4.16;51.37
6216;BME280;3141;49.234;9.326;2023-04-04T00:41:34;100595.84;;;4.21;52.21
6216;BME280;3141;49.234;9.326;2023-04-04T00:42:17;100586.19;;;4.21;51.87
6216;BME280;3141;49.234;9.326;2023-04-04T00:42:59;100597.72;;;4.19;52.26
6216;BME280;3141;49.234;9.326;2023-04-04T00:43:43;100586.69;;;4.28;52.25
6216;BME280;3141;49.234;9.326;2023-04-04T00:44:26;100590.53;;;4.22;52.31
6216;BME280;3141;49.234;9.326;2023-04-04T00:45:08;100584.25;;;4.25;52.37
6216;BME280;3141;49.234;9.326;2023-04-04T00:45:51;100592.38;;;4.20;51.92
6216;BME280;3141;49.234;9.326;2023-04-04T00:46:33;100584.06;;;4.14;52.20
6216;BME280;3141;49.234;9.326;2023-04-04T00:47:16;100591.06;;;4.13;52.09
6216;BME280;3141;49.234;9.326;2023-04-04T00:48:00;100586.84;;;4.11;52.23
6216;BME280;3141;49.234;9.326;2023-04-04T00:48:43;100590.22;;;4.13;52.50
6216;BME280;3141;49.234;9.326;2023-04-04T00:49:26;100590.63;;;4.21;51.62
6216;BME280;3141;49.234;9.326;2023-04-04T00:50:08;100595.75;;;4.22;51.47
6216;BME280;3141;49.234;9.326;2023-04-04T00:50:51;100590.63;;;4.21;52.29
6216;BME280;3141;49.234;9.326;2023-04-04T00:51:33;100593.22;;;4.21;51.98
6216;BME280;3141;49.234;9.326;2023-04-04T00:52:16;100589.97;;;4.17;52.35
6216;BME280;3141;49.234;9.326;2023-04-04T00:52:59;100589.41;;;4.12;52.44
6216;BME280;3141;49.234;9.326;2023-04-04T00:53:43;100582.84;;;4.05;52.39
6216;BME280;3141;49.234;9.326;2023-04-04T00:54:28;100586.78;;;3.98;52.27
6216;BME280;3141;49.234;9.326;2023-04-04T00:55:11;100581.34;;;4.01;53.13
6216;BME280;3141;49.234;9.326;2023-04-04T00:55:53;100582.19;;;4.02;53.02
6216;BME280;3141;49.234;9.326;2023-04-04T00:56:36;100584.72;;;4.03;52.37
6216;BME280;3141;49.234;9.326;2023-04-04T00:57:20;100584.53;;;4.06;52.97
6216;BME280;3141;49.234;9.326;2023-04-04T00:58:02;100584.63;;;4.05;53.04
6216;BME280;3141;49.234;9.326;2023-04-04T00:58:45;100579.94;;;4.10;52.62
6216;BME280;3141;49.234;9.326;2023-04-04T00:59:27;100582.38;;;4.13;52.77
6216;BME280;3141;49.234;9.326;2023-04-04T01:00:12;100584.72;;;4.17;52.24
6216;BME280;3141;49.234;9.326;2023-04-04T01:00:55;100580.97;;;4.07;52.41
6216;BME280;3141;49.234;9.326;2023-04-04T01:01:37;100578.81;;;4.00;53.13
6216;BME280;3141;49.234;9.326;2023-04-04T01:02:19;100572.84;;;3.98;53.07
6216;BME280;3141;49.234;9.326;2023-04-04T01:03:03;100566.66;;;3.99;53.08
6216;BME280;3141;49.234;9.326;2023-04-04T01:03:46;100575.91;;;4.04;52.70
6216;BME280;3141;49.234;9.326;2023-04-04T01:04:29;100583.00;;;4.02;53.18
6216;BME280;3141;49.234;9.326;2023-04-04T01:05:11;100576.97;;;4.02;53.74
6216;BME280;3141;49.234;9.326;2023-04-04T01:05:54;100577.13;;;3.99;53.31
6216;BME280;3141;49.234;9.326;2023-04-04T01:06:37;100585.81;;;3.85;54.12
6216;BME280;3141;49.234;9.326;2023-04-04T01:07:19;100579.81;;;3.83;53.58
6216;BME280;3141;49.234;9.326;2023-04-04T01:08:02;100577.81;;;3.88;53.32
6216;BME280;3141;49.234;9.326;2023-04-04T01:08:44;100575.00;;;3.91;53.35
6216;BME280;3141;49.234;9.326;2023-04-04T01:09:27;100582.94;;;3.90;53.64
6216;BME280;3141;49.234;9.326;2023-04-04T01:10:10;100582.66;;;3.94;53.32
6216;BME280;3141;49.234;9.326;2023-04-04T01:10:53;100575.09;;;3.90;53.68
6216;BME280;3141;49.234;9.326;2023-04-04T01:11:35;100576.94;;;3.88;54.00
6216;BME280;3141;49.234;9.326;2023-04-04T01:12:17;100581.06;;;3.92;53.92
6216;BME280;3141;49.234;9.326;2023-04-04T01:13:00;100577.50;;;3.93;53.82
6216;BME280;3141;49.234;9.326;2023-04-04T01:13:43;100577.59;;;3.91;53.48
6216;BME280;3141;49.234;9.326;2023-04-04T01:14:26;100587.31;;;3.89;53.86
6216;BME280;3141;49.234;9.326;2023-04-04T01:15:08;100581.97;;;3.77;54.00
6216;BME280;3141;49.234;9.326;2023-04-04T01:15:51;100585.97;;;3.68;54.13
6216;BME280;3141;49.234;9.326;2023-04-04T01:16:33;100584.66;;;3.75;53.74
6216;BME280;3141;49.234;9.326;2023-04-04T01:17:17;100580.19;;;3.77;54.25
6216;BME280;3141;49.234;9.326;2023-04-04T01:18:01;100577.78;;;3.74;54.55
6216;BME280;3141;49.234;9.326;2023-04-04T01:18:45;100579.44;;;3.75;54.55
6216;BME280;3141;49.234;9.326;2023-04-04T01:19:35;100572.81;;;3.84;54.06
6216;BME280;3141;49.234;9.326;2023-04-04T01:20:22;100582.44;;;3.83;53.92
6216;BME280;3141;49.234;9.326;2023-04-04T01:21:10;100575.34;;;3.85;54.10
6216;BME280;3141;49.234;9.326;2023-04-04T01:21:55;100575.09;;;3.90;53.87
6216;BME280;3141;49.234;9.326;2023-04-04T01:22:39;100573.38;;;3.89;53.93
6216;BME280;3141;49.234;9.326;2023-04-04T01:23:23;100581.44;;;3.86;54.12
6216;BME280;3141;49.234;9.326;2023-04-04T01:24:11;100576.84;;;3.89;53.52
6216;BME280;3141;49.234;9.326;2023-04-04T01:24:59;100573.28;;;3.90;53.92
6216;BME280;3141;49.234;9.326;2023-04-04T01:25:42;100571.91;;;3.85;54.03
6216;BME280;3141;49.234;9.326;2023-04-04T01:26:25;100578.53;;;3.76;54.83
6216;BME280;3141;49.234;9.326;2023-04-04T01:27:09;100576.47;;;3.81;54.53
6216;BME280;3141;49.234;9.326;2023-04-04T01:27:52;100570.13;;;3.85;54.45
6216;BME280;3141;49.234;9.326;2023-04-04T01:28:35;100579.16;;;3.80;53.97
6216;BME280;3141;49.234;9.326;2023-04-04T01:29:18;100573.09;;;3.79;54.12
6216;BME280;3141;49.234;9.326;2023-04-04T01:30:01;100578.59;;;3.75;54.29
6216;BME280;3141;49.234;9.326;2023-04-04T01:30:44;100576.34;;;3.69;54.51
6216;BME280;3141;49.234;9.326;2023-04-04T01:31:31;100577.28;;;3.68;54.50
6216;BME280;3141;49.234;9.326;2023-04-04T01:32:26;100573.66;;;3.70;54.86
6216;BME280;3141;49.234;9.326;2023-04-04T01:33:18;100572.22;;;3.65;54.19
6216;BME280;3141;49.234;9.326;2023-04-04T01:34:11;100574.28;;;3.60;55.04
6216;BME280;3141;49.234;9.326;2023-04-04T01:35:08;100572.84;;;3.54;55.17
6216;BME280;3141;49.234;9.326;2023-04-04T01:36:06;100570.25;;;3.54;55.42
6216;BME280;3141;49.234;9.326;2023-04-04T01:38:17;100570.25;;;3.54;54.86
6216;BME280;3141;49.234;9.326;2023-04-04T01:39:16;100571.72;;;3.44;54.99
6216;BME280;3141;49.234;9.326;2023-04-04T01:40:05;100570.88;;;3.43;55.19
6216;BME280;3141;49.234;9.326;2023-04-04T01:40:51;100572.28;;;3.49;55.43
6216;BME280;3141;49.234;9.326;2023-04-04T01:41:36;100570.53;;;3.49;55.72
6216;BME280;3141;49.234;9.326;2023-04-04T01:42:19;100572.66;;;3.43;55.44
6216;BME280;3141;49.234;9.326;2023-04-04T01:43:02;100577.97;;;3.41;55.96
6216;BME280;3141;49.234;9.326;2023-04-04T01:43:45;100571.16;;;3.39;55.92
6216;BME280;3141;49.234;9.326;2023-04-04T01:44:27;100566.59;;;3.42;55.46
6216;BME280;3141;49.234;9.326;2023-04-04T01:45:10;100575.09;;;3.46;55.19
6216;BME280;3141;49.234;9.326;2023-04-04T01:45:53;100567.25;;;3.46;56.37
6216;BME280;3141;49.234;9.326;2023-04-04T01:46:35;100567.59;;;3.40;55.92
6216;BME280;3141;49.234;9.326;2023-04-04T01:47:18;100571.41;;;3.34;55.78
6216;BME280;3141;49.234;9.326;2023-04-04T01:48:00;100575.44;;;3.40;55.57
6216;BME280;3141;49.234;9.326;2023-04-04T01:48:44;100570.47;;;3.35;56.19
6216;BME280;3141;49.234;9.326;2023-04-04T01:49:26;100570.19;;;3.40;56.95
6216;BME280;3141;49.234;9.326;2023-04-04T01:50:10;100570.28;;;3.38;56.35
6216;BME280;3141;49.234;9.326;2023-04-04T01:50:53;100566.84;;;3.38;55.97
6216;BME280;3141;49.234;9.326;2023-04-04T01:51:35;100568.13;;;3.31;55.94
6216;BME280;3141;49.234;9.326;2023-04-04T01:52:18;100562.63;;;3.35;55.58
6216;BME280;3141;49.234;9.326;2023-04-04T01:53:00;100570.84;;;3.29;55.66
6216;BME280;3141;49.234;9.326;2023-04-04T01:53:42;100571.16;;;3.39;55.46
6216;BME280;3141;49.234;9.326;2023-04-04T01:54:25;100563.31;;;3.39;56.00
6216;BME280;3141;49.234;9.326;2023-04-04T01:55:09;100561.88;;;3.33;56.09
6216;BME280;3141;49.234;9.326;2023-04-04T01:55:51;100562.72;;;3.34;56.00
6216;BME280;3141;49.234;9.326;2023-04-04T01:56:35;100563.03;;;3.43;55.32
6216;BME280;3141;49.234;9.326;2023-04-04T01:57:17;100566.94;;;3.36;55.13
6216;BME280;3141;49.234;9.326;2023-04-04T01:57:59;100560.03;;;3.35;55.74
6216;BME280;3141;49.234;9.326;2023-04-04T01:58:42;100570.91;;;3.28;55.47
6216;BME280;3141;49.234;9.326;2023-04-04T01:59:24;100561.41;;;3.27;55.57
6216;BME280;3141;49.234;9.326;2023-04-04T02:00:07;100556.56;;;3.35;54.72
6216;BME280;3141;49.234;9.326;2023-04-04T02:00:56;100564.97;;;3.40;54.93
6216;BME280;3141;49.234;9.326;2023-04-04T02:01:47;100558.97;;;3.53;54.82
6216;BME280;3141;49.234;9.326;2023-04-04T02:02:32;100561.59;;;3.53;54.21
6216;BME280;3141;49.234;9.326;2023-04-04T02:03:15;100560.25;;;3.46;54.32
6216;BME280;3141;49.234;9.326;2023-04-04T02:03:57;100554.75;;;3.51;54.53
6216;BME280;3141;49.234;9.326;2023-04-04T02:04:40;100558.56;;;3.45;54.40
6216;BME280;3141;49.234;9.326;2023-04-04T02:05:22;100558.84;;;3.41;54.87
6216;BME280;3141;49.234;9.326;2023-04-04T02:06:04;100558.25;;;3.36;55.35
6216;BME280;3141;49.234;9.326;2023-04-04T02:06:48;100559.34;;;3.32;54.93
6216;BME280;3141;49.234;9.326;2023-04-04T02:07:31;100559.25;;;3.33;54.70
6216;BME280;3141;49.234;9.326;2023-04-04T02:08:13;100562.31;;;3.41;54.75
6216;BME280;3141;49.234;9.326;2023-04-04T02:08:56;100558.06;;;3.39;54.63
6216;BME280;3141;49.234;9.326;2023-04-04T02:09:38;100555.66;;;3.36;54.35
6216;BME280;3141;49.234;9.326;2023-04-04T02:10:21;100560.16;;;3.48;54.57
6216;BME280;3141;49.234;9.326;2023-04-04T02:11:03;100555.28;;;3.42;53.77
6216;BME280;3141;49.234;9.326;2023-04-04T02:11:45;100558.84;;;3.41;54.51
6216;BME280;3141;49.234;9.326;2023-04-04T02:12:28;100558.16;;;3.37;54.15
6216;BME280;3141;49.234;9.326;2023-04-04T02:13:10;100558.16;;;3.37;54.00
6216;BME280;3141;49.234;9.326;2023-04-04T02:13:53;100563.63;;;3.48;53.92
6216;BME280;3141;49.234;9.326;2023-04-04T02:14:35;100556.59;;;3.49;53.93
6216;BME280;3141;49.234;9.326;2023-04-04T02:15:19;100560.63;;;3.54;53.68
6216;BME280;3141;49.234;9.326;2023-04-04T02:16:01;100561.06;;;3.47;54.08
6216;BME280;3141;49.234;9.326;2023-04-04T02:16:43;100559.84;;;3.38;53.79
6216;BME280;3141;49.234;9.326;2023-04-04T02:17:25;100554.47;;;3.41;54.03
6216;BME280;3141;49.234;9.326;2023-04-04T02:18:09;100562.50;;;3.52;53.83
6216;BME280;3141;49.234;9.326;2023-04-04T02:18:51;100557.78;;;3.43;54.28
6216;BME280;3141;49.234;9.326;2023-04-04T02:19:34;100561.72;;;3.50;54.21
6216;BME280;3141;49.234;9.326;2023-04-04T02:20:16;100558.78;;;3.57;53.41
6216;BME280;3141;49.234;9.326;2023-04-04T02:21:02;100558.50;;;3.61;53.14
6216;BME280;3141;49.234;9.326;2023-04-04T02:21:44;100566.19;;;3.64;53.48
6216;BME280;3141;49.234;9.326;2023-04-04T02:22:26;100560.09;;;3.64;53.35
6216;BME280;3141;49.234;9.326;2023-04-04T02:23:09;100563.63;;;3.63;53.16
6216;BME280;3141;49.234;9.326;2023-04-04T02:23:52;100555.13;;;3.59;53.50
6216;BME280;3141;49.234;9.326;2023-04-04T02:24:34;100558.78;;;3.57;52.71
6216;BME280;3141;49.234;9.326;2023-04-04T02:25:16;100558.88;;;3.55;52.53
6216;BME280;3141;49.234;9.326;2023-04-04T02:25:59;100556.81;;;3.60;53.01
6216;BME280;3141;49.234;9.326;2023-04-04T02:26:41;100553.06;;;3.50;53.03
6216;BME280;3141;49.234;9.326;2023-04-04T02:27:23;100553.41;;;3.44;54.15
6216;BME280;3141;49.234;9.326;2023-04-04T02:28:06;100554.56;;;3.54;53.41
6216;BME280;3141;49.234;9.326;2023-04-04T02:28:48;100551.78;;;3.57;53.46
6216;BME280;3141;49.234;9.326;2023-04-04T02:29:30;100550.38;;;3.51;53.53
6216;BME280;3141;49.234;9.326;2023-04-04T02:30:13;100551.38;;;3.49;53.01
6216;BME280;3141;49.234;9.326;2023-04-04T02:30:59;100559.97;;;3.51;52.85
6216;BME280;3141;49.234;9.326;2023-04-04T02:31:43;100552.69;;;3.56;52.54
6216;BME280;3141;49.234;9.326;2023-04-04T02:32:25;100547.47;;;3.56;52.31
6216;BME280;3141;49.234;9.326;2023-04-04T02:33:08;100549.16;;;3.57;53.23
6216;BME280;3141;49.234;9.326;2023-04-04T02:33:50;100552.97;;;3.51;52.89
6216;BME280;3141;49.234;9.326;2023-04-04T02:34:33;100550.84;;;3.58;52.56
6216;BME280;3141;49.234;9.326;2023-04-04T02:35:15;100557.00;;;3.71;52.62
6216;BME280;3141;49.234;9.326;2023-04-04T02:36:00;100559.06;;;3.66;52.91
6216;BME280;3141;49.234;9.326;2023-04-04T02:36:43;100555.53;;;3.67;53.01
6216;BME280;3141;49.234;9.326;2023-04-04T02:37:26;100554.41;;;3.71;52.57
6216;BME280;3141;49.234;9.326;2023-04-04T02:38:08;100555.72;;;3.64;53.38
6216;BME280;3141;49.234;9.326;2023-04-04T02:38:50;100549.06;;;3.59;53.21
6216;BME280;3141;49.234;9.326;2023-04-04T02:39:33;100544.94;;;3.54;53.75
6216;BME280;3141;49.234;9.326;2023-04-04T02:40:15;100544.00;;;3.41;53.51
6216;BME280;3141;49.234;9.326;2023-04-04T02:40:57;100548.75;;;3.49;53.82
6216;BME280;3141;49.234;9.326;2023-04-04T02:41:40;100550.72;;;3.45;53.96
6216;BME280;3141;49.234;9.326;2023-04-04T02:42:22;100543.91;;;3.43;54.34
6216;BME280;3141;49.234;9.326;2023-04-04T02:43:05;100546.81;;;3.52;54.34
6216;BME280;3141;49.234;9.326;2023-04-04T02:43:47;100554.00;;;3.49;53.64
6216;BME280;3141;49.234;9.326;2023-04-04T02:44:29;100545.38;;;3.47;53.53
6216;BME280;3141;49.234;9.326;2023-04-04T02:45:12;100544.00;;;3.41;53.62
6216;BME280;3141;49.234;9.326;2023-04-04T02:45:55;100544.53;;;3.32;54.21
6216;BME280;3141;49.234;9.326;2023-04-04T02:46:38;100544.06;;;3.40;54.32
6216;BME280;3141;49.234;9.326;2023-04-04T02:47:20;100544.81;;;3.42;54.14
6216;BME280;3141;49.234;9.326;2023-04-04T02:48:02;100546.53;;;3.43;54.27
6216;BME280;3141;49.234;9.326;2023-04-04T02:48:45;100542.41;;;3.39;54.29
6216;BME280;3141;49.234;9.326;2023-04-04T02:49:27;100550.59;;;3.33;54.53
6216;BME280;3141;49.234;9.326;2023-04-04T02:50:10;100548.91;;;3.32;54.83
6216;BME280;3141;49.234;9.326;2023-04-04T02:50:53;100543.50;;;3.35;54.36
6216;BME280;3141;49.234;9.326;2023-04-04T02:51:35;100539.94;;;3.22;54.71
6216;BME280;3141;49.234;9.326;2023-04-04T02:52:19;100535.78;;;3.18;54.89
6216;BME280;3141;49.234;9.326;2023-04-04T02:53:02;100542.72;;;3.19;54.57
6216;BME280;3141;49.234;9.326;2023-04-04T02:53:44;100541.97;;;3.17;54.91
6216;BME280;3141;49.234;9.326;2023-04-04T02:54:27;100543.38;;;3.22;54.50
6216;BME280;3141;49.234;9.326;2023-04-04T02:55:10;100541.44;;;3.26;54.55
6216;BME280;3141;49.234;9.326;2023-04-04T02:55:52;100545.63;;;3.28;54.20
6216;BME280;3141;49.234;9.326;2023-04-04T02:56:36;100548.25;;;3.28;54.29
6216;BME280;3141;49.234;9.326;2023-04-04T02:57:18;100542.78;;;3.33;54.34
6216;BME280;3141;49.234;9.326;2023-04-04T02:58:01;100543.16;;;3.41;53.92
6216;BME280;3141;49.234;9.326;2023-04-04T02:58:43;100546.69;;;3.40;54.62
6216;BME280;3141;49.234;9.326;2023-04-04T02:59:25;100551.34;;;3.35;54.84
6216;BME280;3141;49.234;9.326;2023-04-04T03:00:08;100548.72;;;3.35;54.27
6216;BME280;3141;49.234;9.326;2023-04-04T03:00:54;100549.28;;;3.26;54.06
6216;BME280;3141;49.234;9.326;2023-04-04T03:01:36;100546.66;;;3.26;55.07
6216;BME280;3141;49.234;9.326;2023-04-04T03:02:19;100545.53;;;3.30;54.43
6216;BME280;3141;49.234;9.326;2023-04-04T03:03:01;100549.28;;;3.26;54.77
6216;BME280;3141;49.234;9.326;2023-04-04T03:03:44;100548.53;;;3.24;54.70
6216;BME280;3141;49.234;9.326;2023-04-04T03:04:27;100549.44;;;3.23;54.73
6216;BME280;3141;49.234;9.326;2023-04-04T03:05:10;100547.75;;;3.22;54.78
6216;BME280;3141;49.234;9.326;2023-04-04T03:05:52;100545.16;;;3.22;54.54
6216;BME280;3141;49.234;9.326;2023-04-04T03:06:35;100546.09;;;3.21;55.13
6216;BME280;3141;49.234;9.326;2023-04-04T03:07:17;100547.75;;;3.22;54.85
6216;BME280;3141;49.234;9.326;2023-04-04T03:07:59;100544.16;;;3.24;54.86
6216;BME280;3141;49.234;9.326;2023-04-04T03:08:42;100539.16;;;3.20;55.05
6216;BME280;3141;49.234;9.326;2023-04-04T03:09:24;100546.91;;;3.21;55.22
6216;BME280;3141;49.234;9.326;2023-04-04T03:10:07;100549.44;;;3.23;55.07
6216;BME280;3141;49.234;9.326;2023-04-04T03:10:49;100541.53;;;3.24;54.93
6216;BME280;3141;49.234;9.326;2023-04-04T03:11:32;100542.53;;;3.22;55.35
6216;BME280;3141;49.234;9.326;2023-04-04T03:12:14;100546.09;;;3.21;54.55
6216;BME280;3141;49.234;9.326;2023-04-04T03:12:57;100547.38;;;3.14;55.18
6216;BME280;3141;49.234;9.326;2023-04-04T03:13:39;100544.09;;;3.10;55.05
6216;BME280;3141;49.234;9.326;2023-04-04T03:14:22;100544.75;;;3.14;55.24
6216;BME280;3141;49.234;9.326;2023-04-04T03:15:05;100543.25;;;3.10;55.62
6216;BME280;3141;49.234;9.326;2023-04-04T03:15:48;100543.16;;;3.11;55.54
6216;BME280;3141;49.234;9.326;2023-04-04T03:16:30;100552.84;;;3.09;55.65
6216;BME280;3141;49.234;9.326;2023-04-04T03:17:13;100543.25;;;3.10;55.18
6216;BME280;3141;49.234;9.326;2023-04-04T03:17:56;100539.53;;;3.14;54.73
6216;BME280;3141;49.234;9.326;2023-04-04T03:18:40;100549.44;;;3.23;54.66
6216;BME280;3141;49.234;9.326;2023-04-04T03:19:23;100536.97;;;3.12;55.21
6216;BME280;3141;49.234;9.326;2023-04-04T03:20:05;100548.13;;;3.00;55.45
6216;BME280;3141;49.234;9.326;2023-04-04T03:20:48;100546.28;;;3.02;55.75
6216;BME280;3141;49.234;9.326;2023-04-04T03:21:30;100543.84;;;2.99;55.48
6216;BME280;3141;49.234;9.326;2023-04-04T03:22:13;100544.34;;;3.06;55.59
6216;BME280;3141;49.234;9.326;2023-04-04T03:22:55;100543.25;;;3.10;56.12
6216;BME280;3141;49.234;9.326;2023-04-04T03:23:38;100538.34;;;3.04;55.78
6216;BME280;3141;49.234;9.326;2023-04-04T03:24:21;100540.97;;;3.04;56.06
6216;BME280;3141;49.234;9.326;2023-04-04T03:25:03;100545.19;;;3.06;55.86
6216;BME280;3141;49.234;9.326;2023-04-04T03:25:46;100539.53;;;3.14;55.96
6216;BME280;3141;49.234;9.326;2023-04-04T03:26:28;100544.22;;;3.23;55.98
6216;BME280;3141;49.234;9.326;2023-04-04T03:27:11;100541.69;;;3.21;55.50
6216;BME280;3141;49.234;9.326;2023-04-04T03:27:53;100544.75;;;3.14;55.68
6216;BME280;3141;49.234;9.326;2023-04-04T03:28:35;100542.66;;;3.05;55.84
6216;BME280;3141;49.234;9.326;2023-04-04T03:29:18;100545.47;;;3.02;55.67
6216;BME280;3141;49.234;9.326;2023-04-04T03:30:00;100542.56;;;3.06;56.17
6216;BME280;3141;49.234;9.326;2023-04-04T03:30:43;100540.06;;;3.05;56.03
6216;BME280;3141;49.234;9.326;2023-04-04T03:31:25;100548.78;;;3.04;56.06
6216;BME280;3141;49.234;9.326;2023-04-04T03:32:07;100547.13;;;3.03;55.96
6216;BME280;3141;49.234;9.326;2023-04-04T03:32:50;100544.13;;;2.95;55.67
6216;BME280;3141;49.234;9.326;2023-04-04T03:33:35;100545.47;;;3.02;56.13
6216;BME280;3141;49.234;9.326;2023-04-04T03:34:22;100537.03;;;2.97;55.61
6216;BME280;3141;49.234;9.326;2023-04-04T03:35:06;100544.59;;;3.01;56.30
6216;BME280;3141;49.234;9.326;2023-04-04T03:35:48;100538.63;;;2.99;56.22
6216;BME280;3141;49.234;9.326;2023-04-04T03:36:31;100533.00;;;2.91;55.99
6216;BME280;3141;49.234;9.326;2023-04-04T03:37:13;100530.06;;;2.82;56.02
6216;BME280;3141;49.234;9.326;2023-04-04T03:37:55;100529.06;;;2.84;56.27
6216;BME280;3141;49.234;9.326;2023-04-04T03:38:38;100529.53;;;2.91;56.82
6216;BME280;3141;49.234;9.326;2023-04-04T03:39:21;100537.19;;;2.94;56.60
6216;BME280;3141;49.234;9.326;2023-04-04T03:40:04;100530.97;;;2.96;55.60
6216;BME280;3141;49.234;9.326;2023-04-04T03:40:47;100529.94;;;2.99;56.12
6216;BME280;3141;49.234;9.326;2023-04-04T03:41:29;100537.88;;;2.97;55.95
6216;BME280;3141;49.234;9.326;2023-04-04T03:42:11;100525.75;;;2.96;56.38
6216;BME280;3141;49.234;9.326;2023-04-04T03:42:53;100526.75;;;2.94;56.46
6216;BME280;3141;49.234;9.326;2023-04-04T03:43:36;100531.72;;;2.98;56.13
6216;BME280;3141;49.234;9.326;2023-04-04T03:44:18;100534.44;;;2.97;56.26
6216;BME280;3141;49.234;9.326;2023-04-04T03:45:01;100537.19;;;2.94;56.12
6216;BME280;3141;49.234;9.326;2023-04-04T03:45:43;100530.81;;;2.84;56.64
6216;BME280;3141;49.234;9.326;2023-04-04T03:46:26;100517.50;;;2.73;56.82
6216;BME280;3141;49.234;9.326;2023-04-04T03:47:08;100528.72;;;2.75;56.79
6216;BME280;3141;49.234;9.326;2023-04-04T03:47:50;100532.66;;;2.82;56.81
6216;BME280;3141;49.234;9.326;2023-04-04T03:48:33;100529.28;;;2.80;56.57
6216;BME280;3141;49.234;9.326;2023-04-04T03:49:15;100531.84;;;2.81;56.79
6216;BME280;3141;49.234;9.326;2023-04-04T03:49:58;100529.88;;;2.85;56.76
6216;BME280;3141;49.234;9.326;2023-04-04T03:50:40;100531.00;;;2.81;57.39
6216;BME280;3141;49.234;9.326;2023-04-04T03:51:23;100528.03;;;2.87;56.65
6216;BME280;3141;49.234;9.326;2023-04-04T03:52:05;100531.50;;;2.87;56.67
6216;BME280;3141;49.234;9.326;2023-04-04T03:52:48;100527.81;;;2.76;56.21
6216;BME280;3141;49.234;9.326;2023-04-04T03:53:30;100535.47;;;2.79;56.91
6216;BME280;3141;49.234;9.326;2023-04-04T03:54:13;100529.88;;;2.85;56.52
6216;BME280;3141;49.234;9.326;2023-04-04T03:54:55;100530.25;;;2.79;56.78
6216;BME280;3141;49.234;9.326;2023-04-04T03:55:40;100534.88;;;2.74;56.81
6216;BME280;3141;49.234;9.326;2023-04-04T03:56:23;100534.03;;;2.73;56.12